sensor_id;sensor_type;location;lat;lon;timestamp;temperature;humidity
47540;DHT22;33280;52.152;21.052;2023-05-16T00:02:23;11.70;99.90
47540;DHT22;33280;52.152;21.052;2023-05-16T00:05:10;11.70;99.90
47540;DHT22;33280;52.152;21.052;2023-05-16T00:08:00;11.70;99.90
47540;DHT22;33280;52.152;21.052;2023-05-16T00:10:48;11.80;99.90
47540;DHT22;33280;52.152;21.052;2023-05-16T00:13:35;11.80;99.90
47540;DHT22;33280;52.152;21.052;2023-05-16T00:16:22;11.80;99.90
47540;DHT22;33280;52.152;21.052;2023-05-16T00:19:11;11.80;99.90
47540;DHT22;33280;52.152;21.052;2023-05-16T00:21:59;11.90;99.90
47540;DHT22;33280;52.152;21.052;2023-05-16T00:24:47;11.90;99.90
47540;DHT22;33280;52.152;21.052;2023-05-16T00:27:34;11.90;99.90
47540;DHT22;33280;52.152;21.052;2023-05-16T00:30:22;11.90;99.90
47540;DHT22;33280;52.152;21.052;2023-05-16T00:33:09;11.90;99.90
47540;DHT22;33280;52.152;21.052;2023-05-16T00:35:56;11.90;99.90
47540;DHT22;33280;52.152;21.052;2023-05-16T00:38:44;11.90;99.90
47540;DHT22;33280;52.152;21.052;2023-05-16T00:41:33;11.90;99.90
47540;DHT22;33280;52.152;21.052;2023-05-16T00:44:20;11.90;99.90
47540;DHT22;33280;52.152;21.052;2023-05-16T00:47:07;11.90;99.90
47540;DHT22;33280;52.152;21.052;2023-05-16T00:49:55;11.80;99.90
47540;DHT22;33280;52.152;21.052;2023-05-16T00:52:42;11.80;99.90
47540;DHT22;33280;52.152;21.052;2023-05-16T00:55:30;11.80;99.90
47540;DHT22;33280;52.152;21.052;2023-05-16T00:58:18;11.90;99.90
47540;DHT22;33280;52.152;21.052;2023-05-16T01:01:07;11.80;99.90
47540;DHT22;33280;52.152;21.052;2023-05-16T01:03:55;11.80;99.90
47540;DHT22;33280;52.152;21.052;2023-05-16T01:06:43;11.80;99.90
47540;DHT22;33280;52.152;21.052;2023-05-16T01:09:31;11.90;99.90
47540;DHT22;33280;52.152;21.052;2023-05-16T01:15:38;11.80;99.90
47540;DHT22;33280;52.152;21.052;2023-05-16T01:19:00;11.80;99.90
47540;DHT22;33280;52.152;21.052;2023-05-16T01:22:26;11.80;99.90
47540;DHT22;33280;52.152;21.052;2023-05-16T01:25:45;11.80;99.90
47540;DHT22;33280;52.152;21.052;2023-05-16T01:28:41;11.80;99.90
47540;DHT22;33280;52.152;21.052;2023-05-16T01:31:29;11.90;99.90
47540;DHT22;33280;52.152;21.052;2023-05-16T01:34:16;11.80;99.90
47540;DHT22;33280;52.152;21.052;2023-05-16T01:37:12;11.70;99.90
47540;DHT22;33280;52.152;21.052;2023-05-16T01:40:12;11.70;99.90
47540;DHT22;33280;52.152;21.052;2023-05-16T01:43:05;11.70;99.90
47540;DHT22;33280;52.152;21.052;2023-05-16T01:45:59;11.70;99.90
47540;DHT22;33280;52.152;21.052;2023-05-16T01:48:58;11.70;99.90
47540;DHT22;33280;52.152;21.052;2023-05-16T01:51:58;11.60;99.90
47540;DHT22;33280;52.152;21.052;2023-05-16T01:54:47;11.60;99.90
47540;DHT22;33280;52.152;21.052;2023-05-16T01:57:41;11.60;99.90
47540;DHT22;33280;52.152;21.052;2023-05-16T02:00:30;11.60;99.90
47540;DHT22;33280;52.152;21.052;2023-05-16T02:03:17;11.50;99.90
47540;DHT22;33280;52.152;21.052;2023-05-16T02:06:05;11.60;99.90
47540;DHT22;33280;52.152;21.052;2023-05-16T02:08:52;11.50;99.90
47540;DHT22;33280;52.152;21.052;2023-05-16T02:11:39;11.60;99.90
47540;DHT22;33280;52.152;21.052;2023-05-16T02:14:27;11.40;99.90
47540;DHT22;33280;52.152;21.052;2023-05-16T02:17:14;11.50;99.90
47540;DHT22;33280;52.152;21.052;2023-05-16T02:20:01;11.50;99.90
47540;DHT22;33280;52.152;21.052;2023-05-16T02:22:52;11.50;99.90
47540;DHT22;33280;52.152;21.052;2023-05-16T02:25:42;11.40;99.90
47540;DHT22;33280;52.152;21.052;2023-05-16T02:28:29;11.40;99.90
47540;DHT22;33280;52.152;21.052;2023-05-16T02:31:30;11.30;99.90
47540;DHT22;33280;52.152;21.052;2023-05-16T02:34:18;11.30;99.90
47540;DHT22;33280;52.152;21.052;2023-05-16T02:37:05;11.20;99.90
47540;DHT22;33280;52.152;21.052;2023-05-16T02:39:53;11.20;99.90
47540;DHT22;33280;52.152;21.052;2023-05-16T02:42:45;11.30;99.90
47540;DHT22;33280;52.152;21.052;2023-05-16T02:45:32;11.20;99.90
47540;DHT22;33280;52.152;21.052;2023-05-16T02:48:21;11.10;99.90
47540;DHT22;33280;52.152;21.052;2023-05-16T02:51:08;11.20;99.90
47540;DHT22;33280;52.152;21.052;2023-05-16T02:53:56;11.10;99.90
47540;DHT22;33280;52.152;21.052;2023-05-16T02:56:43;11.00;99.90
47540;DHT22;33280;52.152;21.052;2023-05-16T02:59:31;11.10;99.90
47540;DHT22;33280;52.152;21.052;2023-05-16T03:02:19;11.10;99.90
47540;DHT22;33280;52.152;21.052;2023-05-16T03:05:07;11.10;99.90
47540;DHT22;33280;52.152;21.052;2023-05-16T03:07:56;11.00;99.90
47540;DHT22;33280;52.152;21.052;2023-05-16T03:10:45;11.10;99.90
47540;DHT22;33280;52.152;21.052;2023-05-16T03:13:33;11.10;99.90
47540;DHT22;33280;52.152;21.052;2023-05-16T03:16:20;11.10;99.90
47540;DHT22;33280;52.152;21.052;2023-05-16T03:19:08;11.10;99.90
47540;DHT22;33280;52.152;21.052;2023-05-16T03:21:55;11.10;99.90
47540;DHT22;33280;52.152;21.052;2023-05-16T03:24:43;11.10;99.90
47540;DHT22;33280;52.152;21.052;2023-05-16T03:27:31;11.00;99.90
47540;DHT22;33280;52.152;21.052;2023-05-16T03:30:18;11.10;99.90
47540;DHT22;33280;52.152;21.052;2023-05-16T03:33:05;11.10;99.90
47540;DHT22;33280;52.152;21.052;2023-05-16T03:35:53;11.10;99.90
47540;DHT22;33280;52.152;21.052;2023-05-16T03:38:41;11.10;99.90
47540;DHT22;33280;52.152;21.052;2023-05-16T03:41:28;11.10;99.90
47540;DHT22;33280;52.152;21.052;2023-05-16T03:44:15;11.10;99.90
47540;DHT22;33280;52.152;21.052;2023-05-16T03:47:03;11.20;99.90
47540;DHT22;33280;52.152;21.052;2023-05-16T03:49:50;11.20;99.90
47540;DHT22;33280;52.152;21.052;2023-05-16T03:52:37;11.20;99.90
47540;DHT22;33280;52.152;21.052;2023-05-16T03:55:24;11.20;99.90
47540;DHT22;33280;52.152;21.052;2023-05-16T03:58:12;11.30;99.90
47540;DHT22;33280;52.152;21.052;2023-05-16T04:00:59;11.30;99.90
47540;DHT22;33280;52.152;21.052;2023-05-16T04:03:46;11.20;99.90
47540;DHT22;33280;52.152;21.052;2023-05-16T04:06:33;11.20;99.90
47540;DHT22;33280;52.152;21.052;2023-05-16T04:09:20;11.30;99.90
47540;DHT22;33280;52.152;21.052;2023-05-16T04:12:08;11.20;99.90
47540;DHT22;33280;52.152;21.052;2023-05-16T04:14:55;11.30;99.90
47540;DHT22;33280;52.152;21.052;2023-05-16T04:17:42;11.30;99.90
47540;DHT22;33280;52.152;21.052;2023-05-16T04:20:30;11.30;99.90
47540;DHT22;33280;52.152;21.052;2023-05-16T04:23:18;11.50;99.90
47540;DHT22;33280;52.152;21.052;2023-05-16T04:26:06;11.40;99.90
47540;DHT22;33280;52.152;21.052;2023-05-16T04:28:53;11.40;99.90
47540;DHT22;33280;52.152;21.052;2023-05-16T04:31:40;11.50;99.90
47540;DHT22;33280;52.152;21.052;2023-05-16T04:34:28;11.60;99.90
47540;DHT22;33280;52.152;21.052;2023-05-16T04:37:15;11.60;99.90
47540;DHT22;33280;52.152;21.052;2023-05-16T04:40:03;11.70;99.90
47540;DHT22;33280;52.152;21.052;2023-05-16T04:42:52;11.60;99.90
47540;DHT22;33280;52.152;21.052;2023-05-16T04:45:41;11.70;99.90
47540;DHT22;33280;52.152;21.052;2023-05-16T04:48:29;11.70;99.90
47540;DHT22;33280;52.152;21.052;2023-05-16T04:51:16;11.90;99.90
47540;DHT22;33280;52.152;21.052;2023-05-16T04:54:05;11.90;99.90
47540;DHT22;33280;52.152;21.052;2023-05-16T04:56:54;11.90;99.90
47540;DHT22;33280;52.152;21.052;2023-05-16T04:59:41;11.90;99.90
47540;DHT22;33280;52.152;21.052;2023-05-16T05:02:29;12.00;99.90
47540;DHT22;33280;52.152;21.052;2023-05-16T05:05:16;12.10;99.90
47540;DHT22;33280;52.152;21.052;2023-05-16T05:08:05;12.10;99.90
47540;DHT22;33280;52.152;21.052;2023-05-16T05:10:52;12.20;99.90
47540;DHT22;33280;52.152;21.052;2023-05-16T05:13:39;12.30;99.90
47540;DHT22;33280;52.152;21.052;2023-05-16T05:16:27;12.40;99.90
47540;DHT22;33280;52.152;21.052;2023-05-16T05:19:14;12.40;99.90
47540;DHT22;33280;52.152;21.052;2023-05-16T05:22:01;12.50;99.90
47540;DHT22;33280;52.152;21.052;2023-05-16T05:24:49;12.50;99.90
47540;DHT22;33280;52.152;21.052;2023-05-16T05:27:36;12.60;99.90
47540;DHT22;33280;52.152;21.052;2023-05-16T05:30:23;12.70;99.90
47540;DHT22;33280;52.152;21.052;2023-05-16T05:33:12;12.80;99.90
47540;DHT22;33280;52.152;21.052;2023-05-16T05:36:01;12.90;99.90
47540;DHT22;33280;52.152;21.052;2023-05-16T05:38:50;13.00;99.90
47540;DHT22;33280;52.152;21.052;2023-05-16T05:41:37;13.10;99.90
47540;DHT22;33280;52.152;21.052;2023-05-16T05:44:24;13.20;99.90
47540;DHT22;33280;52.152;21.052;2023-05-16T05:47:11;13.30;99.90
47540;DHT22;33280;52.152;21.052;2023-05-16T05:49:59;13.40;99.90
47540;DHT22;33280;52.152;21.052;2023-05-16T05:56:00;13.50;99.90
47540;DHT22;33280;52.152;21.052;2023-05-16T06:00:16;13.60;99.90
47540;DHT22;33280;52.152;21.052;2023-05-16T06:03:42;13.60;99.90
47540;DHT22;33280;52.152;21.052;2023-05-16T06:07:12;13.80;99.90
47540;DHT22;33280;52.152;21.052;2023-05-16T06:10:02;13.90;99.90
47540;DHT22;33280;52.152;21.052;2023-05-16T06:12:51;13.80;99.90
47540;DHT22;33280;52.152;21.052;2023-05-16T06:15:38;13.80;99.90
47540;DHT22;33280;52.152;21.052;2023-05-16T06:18:28;13.80;99.90
47540;DHT22;33280;52.152;21.052;2023-05-16T06:21:17;13.80;99.90
47540;DHT22;33280;52.152;21.052;2023-05-16T06:24:04;13.90;99.90
47540;DHT22;33280;52.152;21.052;2023-05-16T06:26:51;13.90;99.90
47540;DHT22;33280;52.152;21.052;2023-05-16T06:29:38;14.00;99.90
47540;DHT22;33280;52.152;21.052;2023-05-16T06:32:25;14.00;99.90
47540;DHT22;33280;52.152;21.052;2023-05-16T06:35:12;14.00;99.90
47540;DHT22;33280;52.152;21.052;2023-05-16T06:38:00;14.20;99.90
47540;DHT22;33280;52.152;21.052;2023-05-16T06:40:47;14.30;99.90
47540;DHT22;33280;52.152;21.052;2023-05-16T06:43:35;14.40;99.90
47540;DHT22;33280;52.152;21.052;2023-05-16T06:46:22;14.40;99.90
47540;DHT22;33280;52.152;21.052;2023-05-16T06:49:09;14.50;99.90
47540;DHT22;33280;52.152;21.052;2023-05-16T06:51:56;14.50;99.90
47540;DHT22;33280;52.152;21.052;2023-05-16T06:54:44;14.30;99.90
47540;DHT22;33280;52.152;21.052;2023-05-16T06:57:31;14.30;99.90
47540;DHT22;33280;52.152;21.052;2023-05-16T07:00:18;14.30;99.90
47540;DHT22;33280;52.152;21.052;2023-05-16T07:03:06;14.30;99.90
47540;DHT22;33280;52.152;21.052;2023-05-16T07:05:53;14.30;99.90
47540;DHT22;33280;52.152;21.052;2023-05-16T07:08:41;14.40;99.90
47540;DHT22;33280;52.152;21.052;2023-05-16T07:11:28;14.50;99.90
47540;DHT22;33280;52.152;21.052;2023-05-16T07:14:16;14.30;99.90
47540;DHT22;33280;52.152;21.052;2023-05-16T07:17:04;14.30;99.90
47540;DHT22;33280;52.152;21.052;2023-05-16T07:19:52;14.30;99.90
47540;DHT22;33280;52.152;21.052;2023-05-16T07:22:39;14.30;99.90
47540;DHT22;33280;52.152;21.052;2023-05-16T07:25:27;14.30;99.90
47540;DHT22;33280;52.152;21.052;2023-05-16T07:28:14;14.30;99.90
47540;DHT22;33280;52.152;21.052;2023-05-16T07:31:01;14.10;99.90
47540;DHT22;33280;52.152;21.052;2023-05-16T07:33:50;14.20;99.90
47540;DHT22;33280;52.152;21.052;2023-05-16T07:36:37;14.40;99.90
47540;DHT22;33280;52.152;21.052;2023-05-16T07:39:25;14.30;99.90
47540;DHT22;33280;52.152;21.052;2023-05-16T07:42:15;14.10;99.90
47540;DHT22;33280;52.152;21.052;2023-05-16T07:45:03;14.00;99.90
47540;DHT22;33280;52.152;21.052;2023-05-16T07:47:51;14.10;99.90
47540;DHT22;33280;52.152;21.052;2023-05-16T07:50:38;13.90;99.90
47540;DHT22;33280;52.152;21.052;2023-05-16T07:53:25;14.00;99.90
47540;DHT22;33280;52.152;21.052;2023-05-16T07:56:13;14.50;99.90
47540;DHT22;33280;52.152;21.052;2023-05-16T07:59:00;14.80;99.90
47540;DHT22;33280;52.152;21.052;2023-05-16T08:01:49;14.90;99.90
47540;DHT22;33280;52.152;21.052;2023-05-16T08:04:36;15.10;99.90
47540;DHT22;33280;52.152;21.052;2023-05-16T08:07:24;15.00;99.90
47540;DHT22;33280;52.152;21.052;2023-05-16T08:10:12;15.00;99.90
47540;DHT22;33280;52.152;21.052;2023-05-16T08:12:59;15.20;99.90
47540;DHT22;33280;52.152;21.052;2023-05-16T08:15:46;14.90;99.90
47540;DHT22;33280;52.152;21.052;2023-05-16T08:18:34;14.90;99.90
47540;DHT22;33280;52.152;21.052;2023-05-16T08:21:21;15.30;99.90
47540;DHT22;33280;52.152;21.052;2023-05-16T08:24:08;15.80;99.90
47540;DHT22;33280;52.152;21.052;2023-05-16T08:26:57;15.90;99.90
47540;DHT22;33280;52.152;21.052;2023-05-16T08:29:44;15.90;99.90
47540;DHT22;33280;52.152;21.052;2023-05-16T08:32:31;15.80;99.90
47540;DHT22;33280;52.152;21.052;2023-05-16T08:35:19;15.60;99.90
47540;DHT22;33280;52.152;21.052;2023-05-16T08:38:06;15.60;99.90
47540;DHT22;33280;52.152;21.052;2023-05-16T08:40:53;15.20;99.90
47540;DHT22;33280;52.152;21.052;2023-05-16T08:43:40;15.30;99.90
47540;DHT22;33280;52.152;21.052;2023-05-16T08:46:28;15.60;99.90
47540;DHT22;33280;52.152;21.052;2023-05-16T08:49:17;15.80;99.90
47540;DHT22;33280;52.152;21.052;2023-05-16T08:52:07;15.90;99.90
47540;DHT22;33280;52.152;21.052;2023-05-16T08:55:02;15.90;99.90
47540;DHT22;33280;52.152;21.052;2023-05-16T08:57:57;16.30;99.90
47540;DHT22;33280;52.152;21.052;2023-05-16T09:00:46;16.60;99.90
47540;DHT22;33280;52.152;21.052;2023-05-16T09:03:36;16.70;99.90
47540;DHT22;33280;52.152;21.052;2023-05-16T09:06:23;16.80;99.90
47540;DHT22;33280;52.152;21.052;2023-05-16T09:09:10;17.10;99.90
47540;DHT22;33280;52.152;21.052;2023-05-16T09:11:58;17.00;99.90
47540;DHT22;33280;52.152;21.052;2023-05-16T09:14:46;16.60;99.90
47540;DHT22;33280;52.152;21.052;2023-05-16T09:17:43;16.60;99.90
47540;DHT22;33280;52.152;21.052;2023-05-16T09:20:33;16.60;99.90
47540;DHT22;33280;52.152;21.052;2023-05-16T09:23:23;16.50;99.90
47540;DHT22;33280;52.152;21.052;2023-05-16T09:26:11;16.60;99.90
47540;DHT22;33280;52.152;21.052;2023-05-16T09:28:58;16.50;99.90
47540;DHT22;33280;52.152;21.052;2023-05-16T09:31:48;16.50;99.90
47540;DHT22;33280;52.152;21.052;2023-05-16T09:34:46;16.60;99.90
47540;DHT22;33280;52.152;21.052;2023-05-16T09:37:35;16.60;99.90
47540;DHT22;33280;52.152;21.052;2023-05-16T09:40:23;16.40;99.90
47540;DHT22;33280;52.152;21.052;2023-05-16T09:43:14;16.30;99.90
47540;DHT22;33280;52.152;21.052;2023-05-16T09:46:03;16.50;99.90
47540;DHT22;33280;52.152;21.052;2023-05-16T09:48:50;16.90;99.90
47540;DHT22;33280;52.152;21.052;2023-05-16T09:51:39;17.50;99.90
47540;DHT22;33280;52.152;21.052;2023-05-16T09:54:31;17.30;99.90
47540;DHT22;33280;52.152;21.052;2023-05-16T09:57:21;17.60;99.90
47540;DHT22;33280;52.152;21.052;2023-05-16T10:00:10;17.50;99.90
47540;DHT22;33280;52.152;21.052;2023-05-16T10:02:58;17.60;99.90
47540;DHT22;33280;52.152;21.052;2023-05-16T10:05:51;17.70;99.90
47540;DHT22;33280;52.152;21.052;2023-05-16T10:08:41;17.80;99.90
47540;DHT22;33280;52.152;21.052;2023-05-16T10:11:29;17.40;99.90
47540;DHT22;33280;52.152;21.052;2023-05-16T10:14:18;17.70;99.90
47540;DHT22;33280;52.152;21.052;2023-05-16T10:17:06;17.50;99.90
47540;DHT22;33280;52.152;21.052;2023-05-16T10:19:54;17.40;99.90
47540;DHT22;33280;52.152;21.052;2023-05-16T10:22:43;16.80;99.90
47540;DHT22;33280;52.152;21.052;2023-05-16T10:25:39;16.70;99.90
47540;DHT22;33280;52.152;21.052;2023-05-16T10:28:28;16.70;99.90
47540;DHT22;33280;52.152;21.052;2023-05-16T10:31:15;16.70;99.90
47540;DHT22;33280;52.152;21.052;2023-05-16T10:34:03;16.70;99.90
47540;DHT22;33280;52.152;21.052;2023-05-16T10:36:50;16.80;99.90
47540;DHT22;33280;52.152;21.052;2023-05-16T10:39:38;16.90;99.90
47540;DHT22;33280;52.152;21.052;2023-05-16T10:42:26;16.90;99.90
47540;DHT22;33280;52.152;21.052;2023-05-16T10:45:20;16.60;99.90
47540;DHT22;33280;52.152;21.052;2023-05-16T10:48:07;17.00;99.90
47540;DHT22;33280;52.152;21.052;2023-05-16T10:50:59;17.30;99.90
47540;DHT22;33280;52.152;21.052;2023-05-16T10:54:06;17.50;99.90
47540;DHT22;33280;52.152;21.052;2023-05-16T10:56:55;17.70;99.90
47540;DHT22;33280;52.152;21.052;2023-05-16T10:59:45;18.00;99.90
47540;DHT22;33280;52.152;21.052;2023-05-16T11:02:39;18.40;99.90
47540;DHT22;33280;52.152;21.052;2023-05-16T11:05:30;18.40;99.90
47540;DHT22;33280;52.152;21.052;2023-05-16T11:08:18;18.40;99.90
47540;DHT22;33280;52.152;21.052;2023-05-16T11:11:37;17.70;99.90
47540;DHT22;33280;52.152;21.052;2023-05-16T11:17:22;17.90;99.90
47540;DHT22;33280;52.152;21.052;2023-05-16T11:20:40;17.80;99.90
47540;DHT22;33280;52.152;21.052;2023-05-16T11:23:27;17.80;99.90
47540;DHT22;33280;52.152;21.052;2023-05-16T11:26:17;17.90;99.90
47540;DHT22;33280;52.152;21.052;2023-05-16T11:29:05;18.10;99.90
47540;DHT22;33280;52.152;21.052;2023-05-16T11:31:52;18.10;99.90
47540;DHT22;33280;52.152;21.052;2023-05-16T11:34:40;18.00;99.90
47540;DHT22;33280;52.152;21.052;2023-05-16T11:37:28;18.30;99.90
47540;DHT22;33280;52.152;21.052;2023-05-16T11:40:16;18.10;99.90
47540;DHT22;33280;52.152;21.052;2023-05-16T11:43:03;18.20;99.90
47540;DHT22;33280;52.152;21.052;2023-05-16T11:45:53;18.20;99.90
47540;DHT22;33280;52.152;21.052;2023-05-16T11:48:42;18.20;99.90
47540;DHT22;33280;52.152;21.052;2023-05-16T11:51:32;18.30;99.90
47540;DHT22;33280;52.152;21.052;2023-05-16T11:54:21;18.60;99.90
47540;DHT22;33280;52.152;21.052;2023-05-16T11:57:08;18.40;99.90
47540;DHT22;33280;52.152;21.052;2023-05-16T12:00:34;18.10;99.90
47540;DHT22;33280;52.152;21.052;2023-05-16T12:03:17;18.30;99.90
47540;DHT22;33280;52.152;21.052;2023-05-16T12:06:05;18.60;99.90
47540;DHT22;33280;52.152;21.052;2023-05-16T12:08:52;18.80;99.90
47540;DHT22;33280;52.152;21.052;2023-05-16T12:11:43;19.00;99.90
47540;DHT22;33280;52.152;21.052;2023-05-16T12:14:30;19.70;99.90
47540;DHT22;33280;52.152;21.052;2023-05-16T12:17:18;20.30;99.90
47540;DHT22;33280;52.152;21.052;2023-05-16T12:20:09;20.70;99.90
47540;DHT22;33280;52.152;21.052;2023-05-16T12:23:00;21.60;99.90
47540;DHT22;33280;52.152;21.052;2023-05-16T12:25:48;22.00;99.90
47540;DHT22;33280;52.152;21.052;2023-05-16T12:28:35;22.00;99.90
47540;DHT22;33280;52.152;21.052;2023-05-16T12:31:25;22.60;99.90
47540;DHT22;33280;52.152;21.052;2023-05-16T12:34:19;23.00;99.90
47540;DHT22;33280;52.152;21.052;2023-05-16T12:37:07;23.30;99.90
47540;DHT22;33280;52.152;21.052;2023-05-16T12:40:00;23.40;99.90
47540;DHT22;33280;52.152;21.052;2023-05-16T12:42:53;23.50;99.90
47540;DHT22;33280;52.152;21.052;2023-05-16T12:45:40;22.60;99.90
47540;DHT22;33280;52.152;21.052;2023-05-16T12:48:32;22.30;99.90
47540;DHT22;33280;52.152;21.052;2023-05-16T12:51:23;21.60;99.90
47540;DHT22;33280;52.152;21.052;2023-05-16T12:54:13;21.10;99.90
47540;DHT22;33280;52.152;21.052;2023-05-16T12:57:01;21.10;99.90
47540;DHT22;33280;52.152;21.052;2023-05-16T12:59:48;20.80;99.90
47540;DHT22;33280;52.152;21.052;2023-05-16T13:02:35;20.80;99.90
47540;DHT22;33280;52.152;21.052;2023-05-16T13:05:24;20.90;99.90
47540;DHT22;33280;52.152;21.052;2023-05-16T13:08:11;20.50;99.90
47540;DHT22;33280;52.152;21.052;2023-05-16T13:11:01;20.10;99.90
47540;DHT22;33280;52.152;21.052;2023-05-16T13:13:51;20.40;99.90
47540;DHT22;33280;52.152;21.052;2023-05-16T13:16:38;21.20;99.90
47540;DHT22;33280;52.152;21.052;2023-05-16T13:19:26;21.80;99.90
47540;DHT22;33280;52.152;21.052;2023-05-16T13:22:13;21.90;99.90
47540;DHT22;33280;52.152;21.052;2023-05-16T13:25:03;21.40;99.90
47540;DHT22;33280;52.152;21.052;2023-05-16T13:27:52;21.60;99.90
47540;DHT22;33280;52.152;21.052;2023-05-16T13:30:39;21.70;99.90
47540;DHT22;33280;52.152;21.052;2023-05-16T13:33:26;21.00;99.90
47540;DHT22;33280;52.152;21.052;2023-05-16T13:36:14;21.00;99.90
47540;DHT22;33280;52.152;21.052;2023-05-16T13:39:01;21.10;99.90
47540;DHT22;33280;52.152;21.052;2023-05-16T13:41:49;20.70;99.90
47540;DHT22;33280;52.152;21.052;2023-05-16T13:44:36;20.40;99.90
47540;DHT22;33280;52.152;21.052;2023-05-16T13:47:24;20.20;99.90
47540;DHT22;33280;52.152;21.052;2023-05-16T13:50:11;20.00;99.90
47540;DHT22;33280;52.152;21.052;2023-05-16T13:52:58;20.00;99.90
47540;DHT22;33280;52.152;21.052;2023-05-16T13:55:45;19.90;99.90
47540;DHT22;33280;52.152;21.052;2023-05-16T13:58:33;20.20;99.90
47540;DHT22;33280;52.152;21.052;2023-05-16T14:01:22;20.50;99.90
47540;DHT22;33280;52.152;21.052;2023-05-16T14:04:10;20.30;99.90
47540;DHT22;33280;52.152;21.052;2023-05-16T14:06:57;20.70;99.90
47540;DHT22;33280;52.152;21.052;2023-05-16T14:09:46;20.90;99.90
47540;DHT22;33280;52.152;21.052;2023-05-16T14:12:33;20.80;99.90
47540;DHT22;33280;52.152;21.052;2023-05-16T14:15:20;21.00;99.90
47540;DHT22;33280;52.152;21.052;2023-05-16T14:18:08;21.40;99.90
47540;DHT22;33280;52.152;21.052;2023-05-16T14:20:55;21.50;99.90
47540;DHT22;33280;52.152;21.052;2023-05-16T14:23:42;21.60;99.90
47540;DHT22;33280;52.152;21.052;2023-05-16T14:26:30;22.00;99.90
47540;DHT22;33280;52.152;21.052;2023-05-16T14:29:18;22.10;99.90
47540;DHT22;33280;52.152;21.052;2023-05-16T14:32:05;22.00;99.90
47540;DHT22;33280;52.152;21.052;2023-05-16T14:34:53;21.80;99.90
47540;DHT22;33280;52.152;21.052;2023-05-16T14:37:40;22.10;99.90
47540;DHT22;33280;52.152;21.052;2023-05-16T14:40:27;22.20;99.90
47540;DHT22;33280;52.152;21.052;2023-05-16T14:43:14;22.00;99.90
47540;DHT22;33280;52.152;21.052;2023-05-16T14:46:02;21.80;99.90
47540;DHT22;33280;52.152;21.052;2023-05-16T14:48:50;21.90;99.90
47540;DHT22;33280;52.152;21.052;2023-05-16T14:51:37;21.50;99.90
47540;DHT22;33280;52.152;21.052;2023-05-16T14:54:25;21.80;99.90
47540;DHT22;33280;52.152;21.052;2023-05-16T14:57:12;21.90;99.90
47540;DHT22;33280;52.152;21.052;2023-05-16T15:00:03;22.00;99.90
47540;DHT22;33280;52.152;21.052;2023-05-16T15:02:51;22.20;99.90
47540;DHT22;33280;52.152;21.052;2023-05-16T15:05:39;22.10;99.90
47540;DHT22;33280;52.152;21.052;2023-05-16T15:08:26;21.80;99.90
47540;DHT22;33280;52.152;21.052;2023-05-16T15:11:14;21.50;99.90
47540;DHT22;33280;52.152;21.052;2023-05-16T15:14:01;21.40;99.90
47540;DHT22;33280;52.152;21.052;2023-05-16T15:16:48;21.40;99.90
47540;DHT22;33280;52.152;21.052;2023-05-16T15:19:38;21.80;99.90
47540;DHT22;33280;52.152;21.052;2023-05-16T15:22:28;21.90;99.90
47540;DHT22;33280;52.152;21.052;2023-05-16T15:25:17;21.90;99.90
47540;DHT22;33280;52.152;21.052;2023-05-16T15:28:04;21.60;99.90
47540;DHT22;33280;52.152;21.052;2023-05-16T15:30:52;21.50;99.90
47540;DHT22;33280;52.152;21.052;2023-05-16T15:33:39;21.10;99.90
47540;DHT22;33280;52.152;21.052;2023-05-16T15:36:26;21.00;99.90
47540;DHT22;33280;52.152;21.052;2023-05-16T15:39:14;20.90;99.90
47540;DHT22;33280;52.152;21.052;2023-05-16T15:42:02;21.00;99.90
47540;DHT22;33280;52.152;21.052;2023-05-16T15:44:57;21.10;99.90
47540;DHT22;33280;52.152;21.052;2023-05-16T15:47:44;21.10;99.90
47540;DHT22;33280;52.152;21.052;2023-05-16T15:50:32;21.10;99.90
47540;DHT22;33280;52.152;21.052;2023-05-16T15:53:19;21.00;99.90
47540;DHT22;33280;52.152;21.052;2023-05-16T15:56:10;20.80;99.90
47540;DHT22;33280;52.152;21.052;2023-05-16T15:58:57;20.80;99.90
47540;DHT22;33280;52.152;21.052;2023-05-16T16:01:47;20.70;99.90
47540;DHT22;33280;52.152;21.052;2023-05-16T16:04:41;20.60;99.90
47540;DHT22;33280;52.152;21.052;2023-05-16T16:07:29;20.60;99.90
47540;DHT22;33280;52.152;21.052;2023-05-16T16:10:19;20.50;99.90
47540;DHT22;33280;52.152;21.052;2023-05-16T16:13:21;20.40;99.90
47540;DHT22;33280;52.152;21.052;2023-05-16T16:16:12;20.30;99.90
47540;DHT22;33280;52.152;21.052;2023-05-16T16:19:06;20.20;99.90
47540;DHT22;33280;52.152;21.052;2023-05-16T16:21:59;20.20;99.90
47540;DHT22;33280;52.152;21.052;2023-05-16T16:24:49;20.00;99.90
47540;DHT22;33280;52.152;21.052;2023-05-16T16:27:37;20.00;99.90
47540;DHT22;33280;52.152;21.052;2023-05-16T16:30:37;19.80;99.90
47540;DHT22;33280;52.152;21.052;2023-05-16T16:33:29;19.80;99.90
47540;DHT22;33280;52.152;21.052;2023-05-16T16:36:18;19.70;99.90
47540;DHT22;33280;52.152;21.052;2023-05-16T16:39:14;19.60;99.90
47540;DHT22;33280;52.152;21.052;2023-05-16T16:42:12;19.50;99.90
47540;DHT22;33280;52.152;21.052;2023-05-16T16:45:02;19.30;99.90
47540;DHT22;33280;52.152;21.052;2023-05-16T16:47:49;19.20;99.90
47540;DHT22;33280;52.152;21.052;2023-05-16T16:50:37;19.40;99.90
47540;DHT22;33280;52.152;21.052;2023-05-16T16:53:24;19.30;99.90
47540;DHT22;33280;52.152;21.052;2023-05-16T16:56:12;19.20;99.90
47540;DHT22;33280;52.152;21.052;2023-05-16T16:59:03;19.20;99.90
47540;DHT22;33280;52.152;21.052;2023-05-16T17:01:57;19.20;99.90
47540;DHT22;33280;52.152;21.052;2023-05-16T17:04:44;19.20;99.90
47540;DHT22;33280;52.152;21.052;2023-05-16T17:07:31;19.10;99.90
47540;DHT22;33280;52.152;21.052;2023-05-16T17:10:19;19.10;99.90
47540;DHT22;33280;52.152;21.052;2023-05-16T17:13:11;19.00;99.90
47540;DHT22;33280;52.152;21.052;2023-05-16T17:16:06;19.00;99.90
47540;DHT22;33280;52.152;21.052;2023-05-16T17:18:57;18.90;99.90
47540;DHT22;33280;52.152;21.052;2023-05-16T17:21:46;18.90;99.90
47540;DHT22;33280;52.152;21.052;2023-05-16T17:24:33;18.90;99.90
47540;DHT22;33280;52.152;21.052;2023-05-16T17:27:21;18.80;99.90
47540;DHT22;33280;52.152;21.052;2023-05-16T17:30:08;18.80;99.90
47540;DHT22;33280;52.152;21.052;2023-05-16T17:32:56;18.70;99.90
47540;DHT22;33280;52.152;21.052;2023-05-16T17:35:44;18.70;99.90
47540;DHT22;33280;52.152;21.052;2023-05-16T17:38:32;18.60;99.90
47540;DHT22;33280;52.152;21.052;2023-05-16T17:41:20;18.60;99.90
47540;DHT22;33280;52.152;21.052;2023-05-16T17:44:08;18.50;99.90